createdAt,value
2022-09-07T00:00:08.085Z,15.63
2022-09-07T00:02:35.771Z,15.65
2022-09-07T00:05:03.574Z,15.66
2022-09-07T00:07:31.729Z,15.67
2022-09-07T00:09:59.354Z,15.68
2022-09-07T00:12:26.980Z,15.66
2022-09-07T00:14:54.837Z,15.67
2022-09-07T00:17:23.831Z,15.68
2022-09-07T00:19:51.488Z,15.67
2022-09-07T00:22:19.138Z,15.66
2022-09-07T00:25:43.012Z,15.68
2022-09-07T00:28:11.083Z,15.68
2022-09-07T00:30:43.124Z,15.67
2022-09-07T00:33:12.464Z,15.67
2022-09-07T00:35:43.260Z,15.67
2022-09-07T00:38:10.933Z,15.69
2022-09-07T00:40:38.880Z,15.72
2022-09-07T00:43:07.241Z,15.73
2022-09-07T00:45:34.902Z,15.72
2022-09-07T00:48:05.931Z,15.70
2022-09-07T00:50:38.501Z,15.72
2022-09-07T00:53:11.617Z,15.74
2022-09-07T00:55:41.558Z,15.75
2022-09-07T00:58:10.348Z,15.76
2022-09-07T01:00:38.224Z,15.76
2022-09-07T01:03:06.384Z,15.77
2022-09-07T01:05:40.046Z,15.76
2022-09-07T01:08:09.383Z,15.77
2022-09-07T01:10:37.605Z,15.76
2022-09-07T01:13:05.433Z,15.73
2022-09-07T01:15:44.567Z,15.73
2022-09-07T01:18:22.804Z,15.71
2022-09-07T01:21:19.288Z,15.71
2022-09-07T01:24:17.194Z,15.68
2022-09-07T01:27:21.144Z,15.70
2022-09-07T01:29:57.647Z,15.69
2022-09-07T01:32:35.797Z,15.65
2022-09-07T01:35:11.253Z,15.66
2022-09-07T01:37:46.913Z,15.67
2022-09-07T01:40:20.341Z,15.67
2022-09-07T01:42:55.328Z,15.64
2022-09-07T01:45:28.904Z,15.63
2022-09-07T01:47:59.516Z,15.61
2022-09-07T01:50:32.044Z,15.62
2022-09-07T01:53:07.509Z,15.62
2022-09-07T01:55:40.321Z,15.61
2022-09-07T01:58:13.408Z,15.63
2022-09-07T02:00:47.019Z,15.61
2022-09-07T02:03:16.620Z,15.59
2022-09-07T02:05:47.936Z,15.61
2022-09-07T02:08:20.245Z,15.61
2022-09-07T02:10:52.537Z,15.62
2022-09-07T02:13:25.189Z,15.61
2022-09-07T02:16:00.318Z,15.56
2022-09-07T02:18:30.398Z,15.57
2022-09-07T02:21:00.579Z,15.56
2022-09-07T02:23:33.665Z,15.56
2022-09-07T02:26:04.045Z,15.58
2022-09-07T02:28:34.634Z,15.55
2022-09-07T02:31:03.919Z,15.56
2022-09-07T02:33:32.216Z,15.55
2022-09-07T02:36:01.532Z,15.54
2022-09-07T02:38:29.498Z,15.54
2022-09-07T02:40:59.594Z,15.52
2022-09-07T02:43:30.217Z,15.52
2022-09-07T02:46:25.863Z,15.53
2022-09-07T02:49:05.382Z,15.52
2022-09-07T02:51:41.247Z,15.53
2022-09-07T02:54:28.689Z,15.54
2022-09-07T02:57:07.180Z,15.54
2022-09-07T02:59:46.239Z,15.53
2022-09-07T03:02:23.907Z,15.52
2022-09-07T03:04:59.398Z,15.53
2022-09-07T03:07:35.788Z,15.52
2022-09-07T03:10:05.492Z,15.52
2022-09-07T03:12:41.669Z,15.52
2022-09-07T03:15:12.187Z,15.50
2022-09-07T03:17:42.228Z,15.48
2022-09-07T03:20:10.932Z,15.47
2022-09-07T03:22:39.154Z,15.48
2022-09-07T03:25:08.213Z,15.46
2022-09-07T03:27:35.993Z,15.45
2022-09-07T03:30:04.614Z,15.43
2022-09-07T03:32:33.556Z,15.41
2022-09-07T03:35:03.764Z,15.38
2022-09-07T03:37:31.385Z,15.36
2022-09-07T03:39:59.058Z,15.36
2022-09-07T03:42:26.733Z,15.38
2022-09-07T03:44:54.357Z,15.38
2022-09-07T03:47:21.977Z,15.38
2022-09-07T03:49:51.257Z,15.38
2022-09-07T03:52:20.386Z,15.38
2022-09-07T03:54:48.037Z,15.37
2022-09-07T03:57:15.930Z,15.36
2022-09-07T03:59:43.573Z,15.33
2022-09-07T04:02:11.407Z,15.31
2022-09-07T04:04:39.178Z,15.27
2022-09-07T04:07:06.906Z,15.25
2022-09-07T04:09:36.001Z,15.23
2022-09-07T04:12:04.163Z,15.20
2022-09-07T04:14:31.824Z,15.20
2022-09-07T04:16:59.543Z,15.20
2022-09-07T04:19:27.300Z,15.19
2022-09-07T04:21:54.912Z,15.19
2022-09-07T04:24:22.565Z,15.16
2022-09-07T04:26:52.130Z,15.19
2022-09-07T04:29:19.769Z,15.20
2022-09-07T04:31:47.404Z,15.19
2022-09-07T04:34:15.576Z,15.23
2022-09-07T04:36:43.213Z,15.25
2022-09-07T04:39:12.096Z,15.28
2022-09-07T04:41:39.807Z,15.30
2022-09-07T04:44:08.816Z,15.30
2022-09-07T04:46:37.763Z,15.30
2022-09-07T04:49:08.185Z,15.31
2022-09-07T04:51:36.651Z,15.33
2022-09-07T04:54:05.460Z,15.32
2022-09-07T04:56:33.769Z,15.34
2022-09-07T04:59:02.708Z,15.36
2022-09-07T05:01:31.862Z,15.39
2022-09-07T05:04:01.057Z,15.42
2022-09-07T05:06:29.210Z,15.43
2022-09-07T05:08:57.363Z,15.40
2022-09-07T05:11:29.141Z,15.46
2022-09-07T05:13:58.019Z,15.48
2022-09-07T05:16:26.115Z,15.50
2022-09-07T05:18:57.332Z,15.52
2022-09-07T05:21:27.436Z,15.56
2022-09-07T05:23:56.952Z,15.63
2022-09-07T05:26:26.812Z,15.65
2022-09-07T05:31:42.688Z,15.73
2022-09-07T05:36:59.381Z,15.79
2022-09-07T05:39:27.583Z,15.79
2022-09-07T05:41:55.246Z,15.83
2022-09-07T05:47:10.863Z,15.89
2022-09-07T05:49:39.869Z,15.95
2022-09-07T05:52:07.574Z,15.98
2022-09-07T05:54:35.232Z,16.04
2022-09-07T05:57:03.455Z,16.11
2022-09-07T05:59:31.123Z,16.15
2022-09-07T06:01:58.870Z,16.17
2022-09-07T06:04:26.793Z,16.17
2022-09-07T06:07:21.512Z,16.13
2022-09-07T06:12:31.193Z,16.27
2022-09-07T06:15:00.916Z,16.33
2022-09-07T06:17:29.663Z,16.37
2022-09-07T06:19:57.293Z,16.42
2022-09-07T06:22:30.582Z,16.43
2022-09-07T06:24:58.736Z,16.44
2022-09-07T06:27:26.388Z,16.52
2022-09-07T06:29:54.009Z,16.63
2022-09-07T06:35:10.541Z,16.81
2022-09-07T06:37:39.691Z,16.77
2022-09-07T06:40:10.371Z,16.78
2022-09-07T06:42:38.156Z,16.79
2022-09-07T06:45:06.847Z,16.81
2022-09-07T06:47:34.627Z,16.91
2022-09-07T06:50:02.294Z,16.94
2022-09-07T06:55:19.112Z,16.96
2022-09-07T06:57:46.786Z,16.95
2022-09-07T07:00:15.285Z,17.04
2022-09-07T07:02:42.927Z,17.09
2022-09-07T07:05:11.037Z,17.17
2022-09-07T07:07:38.716Z,17.17
2022-09-07T07:10:07.160Z,17.26
2022-09-07T07:15:02.828Z,17.39
2022-09-07T07:17:30.449Z,17.52
2022-09-07T07:19:58.126Z,17.62
2022-09-07T07:25:13.433Z,17.82
2022-09-07T07:27:42.424Z,17.79
2022-09-07T07:30:10.990Z,17.76
2022-09-07T07:32:38.835Z,17.67
2022-09-07T07:35:08.752Z,17.60
2022-09-07T07:37:37.056Z,17.57
2022-09-07T07:40:22.771Z,17.48
2022-09-07T07:42:54.457Z,17.48
2022-09-07T07:48:12.644Z,17.39
2022-09-07T07:50:40.228Z,17.36
2022-09-07T07:55:58.313Z,17.40
2022-09-07T07:58:27.972Z,17.47
2022-09-07T08:00:56.757Z,17.52
2022-09-07T08:03:25.950Z,17.51
2022-09-07T08:05:53.858Z,17.54
2022-09-07T08:08:22.915Z,17.55
2022-09-07T08:10:50.689Z,17.57
2022-09-07T08:13:19.056Z,17.62
2022-09-07T08:15:48.031Z,17.59
2022-09-07T08:18:17.091Z,17.66
2022-09-07T08:20:44.838Z,17.83
2022-09-07T08:23:12.363Z,18.00
2022-09-07T08:25:40.012Z,18.11
2022-09-07T08:28:07.534Z,18.20
2022-09-07T08:30:35.044Z,18.28
2022-09-07T08:33:03.939Z,18.27
2022-09-07T08:35:31.434Z,18.22
2022-09-07T08:37:58.943Z,18.27
2022-09-07T08:40:26.450Z,18.31
2022-09-07T08:43:09.013Z,18.33
2022-09-07T08:45:40.816Z,18.33
2022-09-07T08:48:15.068Z,18.28
2022-09-07T08:50:53.220Z,18.26
2022-09-07T08:53:22.315Z,18.21
2022-09-07T08:55:53.832Z,18.20
2022-09-07T08:58:48.337Z,18.19
2022-09-07T09:04:21.439Z,18.17
2022-09-07T09:07:08.893Z,18.15
2022-09-07T09:09:58.837Z,18.13
2022-09-07T09:12:37.527Z,18.17
2022-09-07T09:15:15.992Z,18.23
2022-09-07T09:17:48.491Z,18.29
2022-09-07T09:20:24.218Z,18.37
2022-09-07T09:22:52.685Z,18.39
2022-09-07T09:25:22.492Z,18.41
2022-09-07T09:27:50.645Z,18.39
2022-09-07T09:30:20.120Z,18.39
2022-09-07T09:32:50.052Z,18.32
2022-09-07T09:35:28.101Z,18.12
2022-09-07T09:37:57.513Z,17.96
2022-09-07T09:40:28.284Z,17.89
2022-09-07T09:43:01.746Z,17.79
2022-09-07T09:46:12.256Z,17.79
2022-09-07T09:48:22.591Z,17.79
2022-09-07T09:53:54.298Z,17.78
2022-09-07T09:56:22.780Z,17.75
2022-09-07T09:59:56.064Z,17.64
2022-09-07T10:04:32.976Z,17.60
2022-09-07T10:07:09.803Z,17.55
2022-09-07T10:09:40.411Z,17.48
2022-09-07T10:12:21.535Z,17.44
2022-09-07T10:14:49.307Z,17.35
2022-09-07T10:17:24.442Z,17.46
2022-09-07T10:19:52.565Z,17.49
2022-09-07T10:22:30.748Z,17.59
2022-09-07T10:24:58.567Z,17.74
2022-09-07T10:27:31.698Z,17.89
2022-09-07T10:29:59.834Z,18.04
2022-09-07T10:32:43.169Z,18.18
2022-09-07T10:35:18.948Z,18.39
2022-09-07T10:37:54.517Z,18.41
2022-09-07T10:40:29.930Z,18.53
2022-09-07T10:43:22.801Z,18.58
2022-09-07T10:46:55.871Z,18.65
2022-09-07T10:49:13.479Z,18.70
2022-09-07T10:51:47.826Z,18.76
2022-09-07T10:54:30.269Z,18.87
2022-09-07T10:57:06.507Z,18.91
2022-09-07T11:05:50.581Z,18.76
2022-09-07T11:08:34.330Z,18.73
2022-09-07T11:14:20.034Z,18.63
2022-09-07T11:16:53.502Z,18.46
2022-09-07T11:19:42.295Z,18.37
2022-09-07T11:22:23.694Z,18.27
2022-09-07T11:27:51.234Z,18.08
2022-09-07T11:30:22.806Z,18.07
2022-09-07T11:32:57.308Z,18.25
2022-09-07T11:35:32.901Z,18.34
2022-09-07T11:38:06.277Z,18.45
2022-09-07T11:40:37.177Z,18.57
2022-09-07T11:43:17.834Z,18.64
2022-09-07T11:45:50.354Z,18.66
2022-09-07T11:48:22.290Z,18.73
2022-09-07T11:50:53.148Z,18.82
2022-09-07T11:53:25.653Z,18.72
2022-09-07T11:55:58.398Z,18.66
2022-09-07T11:58:44.191Z,18.71
2022-09-07T12:01:25.341Z,18.77
2022-09-07T12:04:24.737Z,18.90
2022-09-07T12:07:08.751Z,18.98
2022-09-07T12:09:50.149Z,19.24
2022-09-07T12:12:42.035Z,19.52
2022-09-07T12:15:24.347Z,19.81
2022-09-07T12:18:07.506Z,20.06
2022-09-07T12:20:41.150Z,20.21
2022-09-07T12:23:23.084Z,20.29
2022-09-07T12:25:51.960Z,20.28
2022-09-07T12:28:58.117Z,20.19
2022-09-07T12:34:51.640Z,20.07
2022-09-07T12:37:41.661Z,19.81
2022-09-07T12:40:57.737Z,19.66
2022-09-07T12:43:53.841Z,19.66
2022-09-07T12:46:44.853Z,19.54
2022-09-07T12:49:45.159Z,19.68
2022-09-07T12:52:37.649Z,19.67
2022-09-07T12:55:27.875Z,19.68
2022-09-07T12:58:10.553Z,19.69
2022-09-07T13:00:54.833Z,19.65
2022-09-07T13:03:56.629Z,19.81
2022-09-07T13:09:32.029Z,20.04
2022-09-07T13:12:00.894Z,20.31
2022-09-07T13:14:30.278Z,20.56
2022-09-07T13:17:28.715Z,20.66
2022-09-07T13:20:29.987Z,20.64
2022-09-07T13:23:19.813Z,20.87
2022-09-07T13:25:57.416Z,20.74
2022-09-07T13:28:37.306Z,20.91
2022-09-07T13:31:24.622Z,21.13
2022-09-07T13:33:53.064Z,21.43
2022-09-07T13:36:25.542Z,21.63
2022-09-07T13:38:54.868Z,21.58
2022-09-07T13:41:27.588Z,21.72
2022-09-07T13:44:01.746Z,21.73
2022-09-07T13:46:44.445Z,21.64
2022-09-07T13:49:24.797Z,21.77
2022-09-07T13:51:59.790Z,21.86
2022-09-07T13:54:39.559Z,22.02
2022-09-07T13:57:18.444Z,22.29
2022-09-07T13:59:49.798Z,22.39
2022-09-07T14:02:23.687Z,22.11
2022-09-07T14:04:52.813Z,22.23
2022-09-07T14:07:23.068Z,22.27
2022-09-07T14:10:05.341Z,22.11
2022-09-07T14:12:43.415Z,21.95
2022-09-07T14:15:20.990Z,21.59
2022-09-07T14:17:49.073Z,21.50
2022-09-07T14:20:18.640Z,21.33
2022-09-07T14:22:50.625Z,21.11
2022-09-07T14:25:22.163Z,21.21
2022-09-07T14:27:51.194Z,21.20
2022-09-07T14:30:25.872Z,21.12
2022-09-07T14:32:55.281Z,21.38
2022-09-07T14:35:25.486Z,21.47
2022-09-07T14:37:54.007Z,21.60
2022-09-07T14:40:23.810Z,21.82
2022-09-07T14:42:55.184Z,21.95
2022-09-07T14:45:34.507Z,21.98
2022-09-07T14:48:13.305Z,21.92
2022-09-07T14:50:43.254Z,21.89
2022-09-07T14:56:10.829Z,21.89
2022-09-07T14:58:39.692Z,21.92
2022-09-07T15:04:18.788Z,22.07
2022-09-07T15:07:02.320Z,22.20
2022-09-07T15:09:35.944Z,22.09
2022-09-07T15:12:06.387Z,22.09
2022-09-07T15:14:36.255Z,22.03
2022-09-07T15:19:51.661Z,21.82
2022-09-07T15:22:21.424Z,21.61
2022-09-07T15:24:49.200Z,21.54
2022-09-07T15:27:20.784Z,21.45
2022-09-07T15:29:49.620Z,21.34
2022-09-07T15:32:18.190Z,21.25
2022-09-07T15:34:45.994Z,21.18
2022-09-07T15:40:01.882Z,21.06
2022-09-07T15:45:19.014Z,21.02
2022-09-07T15:47:52.047Z,21.12
2022-09-07T15:50:23.101Z,21.09
2022-09-07T15:52:50.960Z,20.86
2022-09-07T15:55:18.604Z,20.85
2022-09-07T15:57:54.479Z,20.89
2022-09-07T16:00:29.046Z,20.95
2022-09-07T16:03:12.165Z,20.93
2022-09-07T16:05:41.476Z,20.84
2022-09-07T16:11:05.246Z,20.78
2022-09-07T16:13:33.458Z,20.68
2022-09-07T16:16:06.130Z,20.60
2022-09-07T16:18:34.779Z,20.60
2022-09-07T16:21:06.017Z,20.57
2022-09-07T16:23:33.576Z,20.52
2022-09-07T16:26:04.115Z,20.44
2022-09-07T16:28:32.201Z,20.31
2022-09-07T16:30:59.853Z,20.23
2022-09-07T16:33:36.089Z,20.17
2022-09-07T16:36:06.489Z,20.16
2022-09-07T16:38:50.122Z,20.19
2022-09-07T16:41:20.728Z,20.20
2022-09-07T16:43:48.415Z,20.07
2022-09-07T16:46:18.193Z,20.04
2022-09-07T16:48:47.598Z,20.03
2022-09-07T16:51:18.675Z,20.00
2022-09-07T16:53:46.422Z,19.98
2022-09-07T16:56:17.035Z,19.97
2022-09-07T16:58:46.545Z,19.87
2022-09-07T17:01:17.866Z,19.87
2022-09-07T17:03:49.261Z,19.84
2022-09-07T17:06:18.118Z,19.76
2022-09-07T17:08:45.653Z,19.70
2022-09-07T17:11:15.696Z,19.56
2022-09-07T17:13:43.959Z,19.50
2022-09-07T17:16:13.436Z,19.46
2022-09-07T17:21:33.292Z,19.24
2022-09-07T17:24:04.170Z,19.24
2022-09-07T17:26:32.956Z,19.16
2022-09-07T17:29:01.323Z,19.07
2022-09-07T17:34:18.515Z,18.88
2022-09-07T17:36:47.677Z,18.83
2022-09-07T17:39:17.745Z,18.76
2022-09-07T17:41:47.095Z,18.71
2022-09-07T17:44:14.628Z,18.65
2022-09-07T17:46:42.215Z,18.55
2022-09-07T17:49:12.223Z,18.51
2022-09-07T17:51:40.211Z,18.46
2022-09-07T17:54:12.788Z,18.40
2022-09-07T17:56:41.683Z,18.33
2022-09-07T18:01:57.534Z,18.19
2022-09-07T18:04:25.471Z,18.15
2022-09-07T18:06:54.393Z,18.10
2022-09-07T18:09:23.361Z,18.06
2022-09-07T18:11:51.287Z,18.01
2022-09-07T18:14:19.588Z,17.95
2022-09-07T18:16:49.817Z,17.90
2022-09-07T18:19:18.649Z,17.83
2022-09-07T18:21:47.711Z,17.79
2022-09-07T18:24:17.629Z,17.73
2022-09-07T18:26:52.441Z,17.71
2022-09-07T18:29:32.379Z,17.65
2022-09-07T18:32:02.331Z,17.64
2022-09-07T18:34:30.665Z,17.62
2022-09-07T18:36:59.107Z,17.62
2022-09-07T18:39:26.799Z,17.59
2022-09-07T18:41:56.509Z,17.60
2022-09-07T18:47:21.102Z,17.60
2022-09-07T18:49:49.753Z,17.58
2022-09-07T18:55:09.778Z,17.52
2022-09-07T18:57:41.541Z,17.49
2022-09-07T19:00:12.004Z,17.49
2022-09-07T19:02:39.620Z,17.47
2022-09-07T19:07:56.562Z,17.42
2022-09-07T19:10:24.197Z,17.42
2022-09-07T19:12:53.100Z,17.39
2022-09-07T19:15:22.447Z,17.38
2022-09-07T19:17:50.250Z,17.38
2022-09-07T19:20:18.383Z,17.38
2022-09-07T19:22:46.315Z,17.36
2022-09-07T19:25:13.869Z,17.36
2022-09-07T19:27:41.397Z,17.37
2022-09-07T19:30:11.508Z,17.37
2022-09-07T19:32:39.015Z,17.37
2022-09-07T19:35:07.095Z,17.39
2022-09-07T19:37:34.708Z,17.39
2022-09-07T19:40:02.530Z,17.41
2022-09-07T19:42:30.406Z,17.42
2022-09-07T19:44:57.947Z,17.44
2022-09-07T19:47:29.137Z,17.46
2022-09-07T19:49:56.928Z,17.47
2022-09-07T19:52:24.501Z,17.47
2022-09-07T19:54:52.093Z,17.47
2022-09-07T19:57:19.800Z,17.49
2022-09-07T19:59:47.404Z,17.50
2022-09-07T20:02:14.938Z,17.51
2022-09-07T20:04:43.888Z,17.51
2022-09-07T20:07:12.696Z,17.55
2022-09-07T20:09:40.208Z,17.55
2022-09-07T20:12:08.973Z,17.57
2022-09-07T20:14:36.901Z,17.58
2022-09-07T20:17:04.464Z,17.55
2022-09-07T20:19:31.973Z,17.55
2022-09-07T20:22:00.889Z,17.57
2022-09-07T20:24:28.400Z,17.58
2022-09-07T20:26:55.917Z,17.59
2022-09-07T20:29:27.900Z,17.60
2022-09-07T20:31:56.705Z,17.60
2022-09-07T20:34:24.374Z,17.62
2022-09-07T20:36:52.254Z,17.62
2022-09-07T20:39:22.074Z,17.62
2022-09-07T20:41:49.688Z,17.62
2022-09-07T20:44:17.664Z,17.60
2022-09-07T20:46:45.477Z,17.60
2022-09-07T20:49:13.028Z,17.61
2022-09-07T20:51:40.971Z,17.61
2022-09-07T20:54:08.581Z,17.61
2022-09-07T20:56:37.437Z,17.60
2022-09-07T20:59:05.219Z,17.60
2022-09-07T21:01:34.990Z,17.58
2022-09-07T21:04:03.873Z,17.58
2022-09-07T21:06:32.805Z,17.58
2022-09-07T21:09:00.783Z,17.60
2022-09-07T21:11:31.033Z,17.57
2022-09-07T21:14:01.324Z,17.57
2022-09-07T21:16:29.339Z,17.55
2022-09-07T21:19:00.776Z,17.54
2022-09-07T21:21:30.114Z,17.52
2022-09-07T21:23:59.660Z,17.50
2022-09-07T21:26:28.416Z,17.49
2022-09-07T21:28:57.026Z,17.47
2022-09-07T21:31:26.479Z,17.46
2022-09-07T21:33:55.417Z,17.43
2022-09-07T21:36:23.941Z,17.42
2022-09-07T21:38:51.634Z,17.36
2022-09-07T21:41:21.416Z,17.37
2022-09-07T21:43:49.069Z,17.36
2022-09-07T21:46:18.540Z,17.33
2022-09-07T21:48:47.473Z,17.31
2022-09-07T21:51:15.228Z,17.28
2022-09-07T21:53:43.485Z,17.27
2022-09-07T21:56:12.869Z,17.26
2022-09-07T21:58:40.895Z,17.19
2022-09-07T22:01:13.264Z,17.17
2022-09-07T22:03:41.695Z,17.17
2022-09-07T22:06:11.357Z,17.15
2022-09-07T22:08:41.157Z,17.10
2022-09-07T22:11:10.668Z,17.07
2022-09-07T22:13:38.697Z,17.04
2022-09-07T22:16:07.269Z,17.02
2022-09-07T22:18:36.760Z,17.00
2022-09-07T22:21:06.840Z,17.00
2022-09-07T22:23:39.646Z,17.00
2022-09-07T22:26:08.108Z,17.00
2022-09-07T22:28:36.544Z,17.00
2022-09-07T22:31:12.480Z,17.00
2022-09-07T22:33:40.925Z,16.97
2022-09-07T22:36:13.622Z,16.95
2022-09-07T22:38:43.853Z,16.95
2022-09-07T22:41:13.704Z,16.93
2022-09-07T22:43:41.287Z,16.92
2022-09-07T22:46:09.067Z,16.89
2022-09-07T22:48:36.784Z,16.89
2022-09-07T22:51:05.792Z,16.86
2022-09-07T22:53:35.474Z,16.84
2022-09-07T22:56:08.877Z,16.81
2022-09-07T22:58:37.137Z,16.78
2022-09-07T23:01:05.978Z,16.75
2022-09-07T23:03:35.440Z,16.70
2022-09-07T23:06:03.489Z,16.68
2022-09-07T23:08:31.472Z,16.63
2022-09-07T23:11:04.862Z,16.56
2022-09-07T23:13:34.266Z,16.49
2022-09-07T23:16:06.048Z,16.39
2022-09-07T23:18:34.646Z,16.31
2022-09-07T23:21:02.871Z,16.26
2022-09-07T23:23:30.896Z,16.22
2022-09-07T23:26:01.744Z,16.19
2022-09-07T23:28:29.918Z,16.17
2022-09-07T23:30:59.926Z,16.16
2022-09-07T23:33:28.271Z,16.12
2022-09-07T23:35:57.494Z,16.13
2022-09-07T23:38:25.915Z,16.12
2022-09-07T23:40:54.482Z,16.12
2022-09-07T23:43:22.085Z,16.14
2022-09-07T23:45:49.633Z,16.14
2022-09-07T23:48:18.507Z,16.12
2022-09-07T23:50:46.497Z,16.11
2022-09-07T23:53:14.610Z,16.08
2022-09-07T23:55:42.613Z,16.07
2022-09-07T23:58:10.676Z,16.01
